createdAt,value
2022-12-22T00:02:29.180Z,58.12
2022-12-22T00:05:16.219Z,57.78
2022-12-22T00:08:03.092Z,58.01
2022-12-22T00:10:49.829Z,58.18
2022-12-22T00:13:37.245Z,58.21
2022-12-22T00:16:24.388Z,57.64
2022-12-22T00:19:10.750Z,57.74
2022-12-22T00:21:57.574Z,57.46
2022-12-22T00:24:44.322Z,57.90
2022-12-22T00:27:45.370Z,57.78
2022-12-22T00:30:34.293Z,57.66
2022-12-22T00:33:23.215Z,57.40
2022-12-22T00:36:10.578Z,57.43
2022-12-22T00:38:57.055Z,56.92
2022-12-22T00:41:43.788Z,56.99
2022-12-22T00:44:30.357Z,57.07
2022-12-22T00:47:17.286Z,56.50
2022-12-22T00:50:07.032Z,56.54
2022-12-22T00:52:54.787Z,56.53
2022-12-22T00:55:48.371Z,56.77
2022-12-22T00:58:37.801Z,56.91
2022-12-22T01:01:24.864Z,57.86
2022-12-22T01:04:11.912Z,57.35
2022-12-22T01:06:58.605Z,57.39
2022-12-22T01:09:46.119Z,56.65
2022-12-22T01:12:38.528Z,56.06
2022-12-22T01:15:37.767Z,55.46
2022-12-22T01:18:24.695Z,55.80
2022-12-22T01:21:13.242Z,55.59
2022-12-22T01:24:01.141Z,56.68
2022-12-22T01:26:47.824Z,57.26
2022-12-22T01:29:34.378Z,58.15
2022-12-22T01:32:21.057Z,57.80
2022-12-22T01:35:07.761Z,56.92
2022-12-22T01:37:55.528Z,56.27
2022-12-22T01:40:43.937Z,56.06
2022-12-22T01:43:52.051Z,55.75
2022-12-22T01:46:41.825Z,56.16
2022-12-22T01:49:33.868Z,55.93
2022-12-22T01:52:20.941Z,56.72
2022-12-22T01:55:08.518Z,57.52
2022-12-22T01:57:56.067Z,57.13
2022-12-22T02:00:43.233Z,56.88
2022-12-22T02:03:38.524Z,58.02
2022-12-22T02:06:56.274Z,58.82
2022-12-22T02:10:13.320Z,58.44
2022-12-22T02:13:20.948Z,58.77
2022-12-22T02:16:15.225Z,60.38
2022-12-22T02:19:13.580Z,60.17
2022-12-22T02:22:40.375Z,59.43
2022-12-22T02:25:35.844Z,59.93
2022-12-22T02:28:24.893Z,60.34
2022-12-22T02:31:12.029Z,59.72
2022-12-22T02:33:59.127Z,59.42
2022-12-22T02:37:07.547Z,58.50
2022-12-22T02:40:06.229Z,57.86
2022-12-22T02:42:55.345Z,59.26
2022-12-22T02:46:00.901Z,58.99
2022-12-22T02:49:04.230Z,58.25
2022-12-22T02:51:57.418Z,57.67
2022-12-22T02:54:47.179Z,58.03
2022-12-22T02:57:36.207Z,58.17
2022-12-22T03:00:27.829Z,57.82
2022-12-22T03:03:14.968Z,57.85
2022-12-22T03:06:01.987Z,57.43
2022-12-22T03:08:48.941Z,58.13
2022-12-22T03:11:35.735Z,57.19
2022-12-22T03:14:22.550Z,57.61
2022-12-22T03:17:09.029Z,57.51
2022-12-22T03:19:55.734Z,56.44
2022-12-22T03:22:42.022Z,56.42
2022-12-22T03:25:28.443Z,57.11
2022-12-22T03:28:06.065Z,56.79
2022-12-22T03:30:34.850Z,57.37
2022-12-22T03:33:03.086Z,57.34
2022-12-22T03:35:31.145Z,56.99
2022-12-22T03:38:03.596Z,56.51
2022-12-22T03:40:32.513Z,55.75
2022-12-22T03:43:19.325Z,57.11
2022-12-22T03:46:05.937Z,57.64
2022-12-22T03:48:33.958Z,57.42
2022-12-22T03:51:02.064Z,57.49
2022-12-22T03:53:30.339Z,57.95
2022-12-22T03:56:01.298Z,58.94
2022-12-22T03:58:34.116Z,58.83
2022-12-22T04:01:08.487Z,58.44
2022-12-22T04:03:36.650Z,58.13
2022-12-22T04:06:04.892Z,58.03
2022-12-22T04:08:33.071Z,57.43
2022-12-22T04:11:19.545Z,56.62
2022-12-22T04:13:47.784Z,56.19
2022-12-22T04:16:15.910Z,56.35
2022-12-22T04:18:44.196Z,56.33
2022-12-22T04:21:12.601Z,55.98
2022-12-22T04:23:40.587Z,56.01
2022-12-22T04:26:09.001Z,56.40
2022-12-22T04:28:37.031Z,56.11
2022-12-22T04:31:05.613Z,55.64
2022-12-22T04:33:33.665Z,55.55
2022-12-22T04:36:01.986Z,55.43
2022-12-22T04:38:29.995Z,54.99
2022-12-22T04:40:58.357Z,55.33
2022-12-22T04:43:26.815Z,55.16
2022-12-22T04:45:57.025Z,55.04
2022-12-22T04:48:26.336Z,55.12
2022-12-22T04:50:56.947Z,54.41
2022-12-22T04:53:27.527Z,54.79
2022-12-22T04:55:59.930Z,54.63
2022-12-22T04:58:28.971Z,53.75
2022-12-22T05:00:57.820Z,53.20
2022-12-22T05:03:26.222Z,53.43
2022-12-22T05:05:54.661Z,53.14
2022-12-22T05:08:22.784Z,53.20
2022-12-22T05:10:50.801Z,53.77
2022-12-22T05:13:18.785Z,53.53
2022-12-22T05:15:46.782Z,54.26
2022-12-22T05:18:14.952Z,54.24
2022-12-22T05:20:42.981Z,54.18
2022-12-22T05:23:11.569Z,55.01
2022-12-22T05:25:39.831Z,55.12
2022-12-22T05:28:08.100Z,55.10
2022-12-22T05:30:36.130Z,54.40
2022-12-22T05:33:04.245Z,55.49
2022-12-22T05:35:32.290Z,57.10
2022-12-22T05:38:00.302Z,57.21
2022-12-22T05:40:28.403Z,56.31
2022-12-22T05:42:56.520Z,55.39
2022-12-22T05:45:24.559Z,54.91
2022-12-22T05:47:52.858Z,54.64
2022-12-22T05:50:24.218Z,55.00
2022-12-22T05:53:00.063Z,54.95
2022-12-22T05:55:28.284Z,54.81
2022-12-22T05:57:56.532Z,54.59
2022-12-22T06:00:24.568Z,54.62
2022-12-22T06:02:52.759Z,54.66
2022-12-22T06:05:21.274Z,54.58
2022-12-22T06:07:49.355Z,54.58
2022-12-22T06:10:18.361Z,54.84
2022-12-22T06:12:46.475Z,55.19
2022-12-22T06:15:15.485Z,54.62
2022-12-22T06:17:45.107Z,54.63
2022-12-22T06:20:14.805Z,55.19
2022-12-22T06:22:43.082Z,55.10
2022-12-22T06:25:17.522Z,55.19
2022-12-22T06:27:48.016Z,54.98
2022-12-22T06:30:16.530Z,55.11
2022-12-22T06:32:44.661Z,56.06
2022-12-22T06:35:13.020Z,56.44
2022-12-22T06:37:41.759Z,56.48
2022-12-22T06:40:10.825Z,56.36
2022-12-22T06:43:11.190Z,56.36
2022-12-22T06:45:42.593Z,57.15
2022-12-22T06:48:12.216Z,57.61
2022-12-22T06:50:40.477Z,58.10
2022-12-22T06:53:08.901Z,58.28
2022-12-22T06:55:38.144Z,58.18
2022-12-22T06:58:06.623Z,58.81
2022-12-22T07:00:34.954Z,59.04
2022-12-22T07:03:03.228Z,60.01
2022-12-22T07:05:32.094Z,59.39
2022-12-22T07:08:07.577Z,59.32
2022-12-22T07:10:56.049Z,60.57
2022-12-22T07:13:34.036Z,60.75
2022-12-22T07:16:04.109Z,59.46
2022-12-22T07:18:36.557Z,58.95
2022-12-22T07:21:08.023Z,60.16
2022-12-22T07:23:37.152Z,59.83
2022-12-22T07:26:09.720Z,59.10
2022-12-22T07:28:40.931Z,58.98
2022-12-22T07:31:11.447Z,58.81
2022-12-22T07:33:39.691Z,58.55
2022-12-22T07:36:13.971Z,58.62
2022-12-22T07:38:45.905Z,58.49
2022-12-22T07:41:34.648Z,57.81
2022-12-22T07:44:04.248Z,57.92
2022-12-22T07:46:36.020Z,57.79
2022-12-22T07:49:24.068Z,57.45
2022-12-22T07:51:53.140Z,57.53
2022-12-22T07:54:21.208Z,58.16
2022-12-22T07:56:49.935Z,58.04
2022-12-22T07:59:18.488Z,58.21
2022-12-22T08:01:47.276Z,58.82
2022-12-22T08:04:16.998Z,58.46
2022-12-22T08:06:45.354Z,58.02
2022-12-22T08:09:21.699Z,57.55
2022-12-22T08:11:50.505Z,58.01
2022-12-22T08:14:18.983Z,57.79
2022-12-22T08:16:47.254Z,57.85
2022-12-22T08:19:15.536Z,57.69
2022-12-22T08:21:50.359Z,57.79
2022-12-22T08:24:21.346Z,57.32
2022-12-22T08:26:54.216Z,57.77
2022-12-22T08:29:32.541Z,58.39
2022-12-22T08:32:01.555Z,58.20
2022-12-22T08:34:30.600Z,57.74
2022-12-22T08:37:02.759Z,57.25
2022-12-22T08:39:35.219Z,56.56
2022-12-22T08:42:08.720Z,55.84
2022-12-22T08:44:40.994Z,56.16
2022-12-22T08:47:16.461Z,55.56
2022-12-22T08:49:45.380Z,54.60
2022-12-22T08:52:18.384Z,54.93
2022-12-22T08:54:47.471Z,54.23
2022-12-22T08:57:15.635Z,53.76
2022-12-22T08:59:43.841Z,52.74
2022-12-22T09:02:12.275Z,52.59
2022-12-22T09:04:40.417Z,52.18
2022-12-22T09:07:08.573Z,52.01
2022-12-22T09:09:36.640Z,51.66
2022-12-22T09:12:05.575Z,51.47
2022-12-22T09:14:34.007Z,51.14
2022-12-22T09:17:02.144Z,50.56
2022-12-22T09:19:30.322Z,49.91
2022-12-22T09:21:58.660Z,49.15
2022-12-22T09:24:26.661Z,48.59
2022-12-22T09:26:54.887Z,48.03
2022-12-22T09:29:23.124Z,47.48
2022-12-22T09:31:51.287Z,47.19
2022-12-22T09:34:19.712Z,47.00
2022-12-22T09:36:48.406Z,46.99
2022-12-22T09:39:19.134Z,47.47
2022-12-22T09:41:56.334Z,48.25
2022-12-22T09:44:30.552Z,48.63
2022-12-22T09:47:01.915Z,48.91
2022-12-22T09:49:30.201Z,49.33
2022-12-22T09:52:03.436Z,49.51
2022-12-22T09:54:31.732Z,49.76
2022-12-22T09:57:01.428Z,49.83
2022-12-22T09:59:31.371Z,50.07
2022-12-22T10:02:33.970Z,50.09
2022-12-22T10:05:28.660Z,50.34
2022-12-22T10:08:02.752Z,50.85
2022-12-22T10:10:32.225Z,50.55
2022-12-22T10:13:02.692Z,50.39
2022-12-22T10:15:41.158Z,50.53
2022-12-22T10:18:21.529Z,50.33
2022-12-22T10:21:10.783Z,51.38
2022-12-22T10:23:45.107Z,51.21
2022-12-22T10:26:28.597Z,50.78
2022-12-22T10:29:06.041Z,51.19
2022-12-22T10:31:37.158Z,51.27
2022-12-22T10:34:17.797Z,51.27
2022-12-22T10:36:51.197Z,50.87
2022-12-22T10:39:25.246Z,49.89
2022-12-22T10:41:57.040Z,50.00
2022-12-22T10:44:31.457Z,49.80
2022-12-22T10:47:16.970Z,49.05
2022-12-22T10:49:49.615Z,48.96
2022-12-22T10:52:31.017Z,48.80
2022-12-22T10:55:19.734Z,48.21
2022-12-22T10:57:48.929Z,47.22
2022-12-22T11:00:31.125Z,47.29
2022-12-22T11:03:01.432Z,48.83
2022-12-22T11:05:31.873Z,48.75
2022-12-22T11:08:20.657Z,48.69
2022-12-22T11:11:02.294Z,47.61
2022-12-22T11:13:54.244Z,46.99
2022-12-22T11:16:24.994Z,46.66
2022-12-22T11:18:56.066Z,46.77
2022-12-22T11:21:39.021Z,45.89
2022-12-22T11:24:25.828Z,46.48
2022-12-22T11:27:06.181Z,47.12
2022-12-22T11:29:50.907Z,46.29
2022-12-22T11:32:57.996Z,46.33
2022-12-22T11:35:44.657Z,46.12
2022-12-22T11:38:34.347Z,45.74
2022-12-22T11:41:33.784Z,46.55
2022-12-22T11:44:28.558Z,47.42
2022-12-22T11:47:26.572Z,47.98
2022-12-22T11:50:58.533Z,48.23
2022-12-22T11:53:38.972Z,48.35
2022-12-22T11:56:48.680Z,47.54
2022-12-22T11:59:42.189Z,47.19
2022-12-22T12:02:34.720Z,47.87
2022-12-22T12:05:23.957Z,48.49
2022-12-22T12:08:09.237Z,49.32
2022-12-22T12:10:43.069Z,49.10
2022-12-22T12:13:37.519Z,49.04
2022-12-22T12:16:36.984Z,49.37
2022-12-22T12:19:46.228Z,48.96
2022-12-22T12:22:56.445Z,49.16
2022-12-22T12:25:43.013Z,48.91
2022-12-22T12:28:23.386Z,49.56
2022-12-22T12:30:52.401Z,49.62
2022-12-22T12:33:32.207Z,49.77
2022-12-22T12:36:11.898Z,50.31
2022-12-22T12:39:07.911Z,51.31
2022-12-22T12:41:53.980Z,51.63
2022-12-22T12:44:31.893Z,50.46
2022-12-22T12:47:25.032Z,50.39
2022-12-22T12:50:00.462Z,50.29
2022-12-22T12:52:41.545Z,50.10
2022-12-22T12:55:32.403Z,49.87
2022-12-22T12:58:03.982Z,49.32
2022-12-22T13:00:32.591Z,49.06
2022-12-22T13:03:03.328Z,49.46
2022-12-22T13:05:57.102Z,49.85
2022-12-22T13:08:32.715Z,50.00
2022-12-22T13:11:00.759Z,49.03
2022-12-22T13:13:28.955Z,49.93
2022-12-22T13:16:00.494Z,50.03
2022-12-22T13:18:29.223Z,49.70
2022-12-22T13:21:26.266Z,49.30
2022-12-22T13:27:00.965Z,48.86
2022-12-22T13:29:35.959Z,49.86
2022-12-22T13:32:29.836Z,49.67
2022-12-22T13:35:38.483Z,49.59
2022-12-22T13:37:54.157Z,49.18
2022-12-22T13:40:30.766Z,49.24
2022-12-22T13:43:12.380Z,48.75
2022-12-22T13:45:53.296Z,48.85
2022-12-22T13:48:24.599Z,49.04
2022-12-22T13:51:05.679Z,48.83
2022-12-22T13:56:42.737Z,48.93
2022-12-22T13:59:39.584Z,48.80
2022-12-22T14:02:11.553Z,49.38
2022-12-22T14:04:43.374Z,50.62
2022-12-22T14:07:17.383Z,50.28
2022-12-22T14:09:50.820Z,50.83
2022-12-22T14:12:22.921Z,50.69
2022-12-22T14:14:54.086Z,50.18
2022-12-22T14:17:34.138Z,50.87
2022-12-22T14:20:17.243Z,50.07
2022-12-22T14:22:51.481Z,50.61
2022-12-22T14:25:24.391Z,50.51
2022-12-22T14:27:56.125Z,50.39
2022-12-22T14:30:32.070Z,50.29
2022-12-22T14:33:33.715Z,50.13
2022-12-22T14:36:16.097Z,50.49
2022-12-22T14:38:47.342Z,50.57
2022-12-22T14:41:41.743Z,52.14
2022-12-22T14:44:14.412Z,52.01
2022-12-22T14:46:44.804Z,51.48
2022-12-22T14:49:19.327Z,51.13
2022-12-22T14:52:00.984Z,50.81
2022-12-22T14:54:30.139Z,50.91
2022-12-22T14:57:10.084Z,50.82
2022-12-22T15:00:02.182Z,50.58
2022-12-22T15:02:39.027Z,50.65
2022-12-22T15:05:10.856Z,50.93
2022-12-22T15:08:06.154Z,50.43
2022-12-22T15:10:42.676Z,50.18
2022-12-22T15:13:22.795Z,50.31
2022-12-22T15:15:52.388Z,50.95
2022-12-22T15:18:27.479Z,50.62
2022-12-22T15:20:57.748Z,51.19
2022-12-22T15:23:25.942Z,51.22
2022-12-22T15:25:53.995Z,52.13
2022-12-22T15:28:22.303Z,51.33
2022-12-22T15:30:50.521Z,51.48
2022-12-22T15:33:20.109Z,52.03
2022-12-22T15:35:48.527Z,52.12
2022-12-22T15:38:22.678Z,51.41
2022-12-22T15:40:52.012Z,52.11
2022-12-22T15:43:55.825Z,52.64
2022-12-22T15:46:11.302Z,51.64
2022-12-22T15:48:39.998Z,50.51
2022-12-22T15:51:19.895Z,50.73
2022-12-22T15:53:48.849Z,51.00
2022-12-22T15:56:22.958Z,51.81
2022-12-22T15:58:51.716Z,51.75
2022-12-22T16:01:19.995Z,50.78
2022-12-22T16:03:48.392Z,51.16
2022-12-22T16:06:19.559Z,50.76
2022-12-22T16:08:51.023Z,50.15
2022-12-22T16:11:19.697Z,50.65
2022-12-22T16:13:49.531Z,50.98
2022-12-22T16:16:17.829Z,52.31
2022-12-22T16:18:46.202Z,53.16
2022-12-22T16:21:22.272Z,54.62
2022-12-22T16:23:50.884Z,55.40
2022-12-22T16:26:20.851Z,55.56
2022-12-22T16:28:49.384Z,55.95
2022-12-22T16:31:23.379Z,55.14
2022-12-22T16:33:52.516Z,55.59
2022-12-22T16:36:20.891Z,56.55
2022-12-22T16:38:49.249Z,55.00
2022-12-22T16:41:25.575Z,54.98
2022-12-22T16:46:41.060Z,56.37
2022-12-22T16:49:09.969Z,55.53
2022-12-22T16:51:47.294Z,54.08
2022-12-22T16:54:15.707Z,55.22
2022-12-22T16:56:47.160Z,56.32
2022-12-22T16:59:16.912Z,56.59
2022-12-22T17:01:55.899Z,56.18
2022-12-22T17:04:24.468Z,55.70
2022-12-22T17:06:55.051Z,54.52
2022-12-22T17:09:29.509Z,54.55
2022-12-22T17:11:59.537Z,54.60
2022-12-22T17:14:34.524Z,54.48
2022-12-22T17:17:03.903Z,54.14
2022-12-22T17:19:32.017Z,54.85
2022-12-22T17:22:00.700Z,55.94
2022-12-22T17:24:29.102Z,54.80
2022-12-22T17:27:03.959Z,54.79
2022-12-22T17:29:32.120Z,55.86
2022-12-22T17:32:00.114Z,56.36
2022-12-22T17:34:28.322Z,56.92
2022-12-22T17:36:58.886Z,55.76
2022-12-22T17:39:27.410Z,55.63
2022-12-22T17:41:57.237Z,57.42
2022-12-22T17:44:28.114Z,58.43
2022-12-22T17:46:56.533Z,57.12
2022-12-22T17:49:24.914Z,56.57
2022-12-22T17:51:53.163Z,57.18
2022-12-22T17:54:27.110Z,58.71
2022-12-22T17:57:01.909Z,57.84
2022-12-22T17:59:30.864Z,58.59
2022-12-22T18:02:00.500Z,58.34
2022-12-22T18:04:28.841Z,58.54
2022-12-22T18:06:56.973Z,57.36
2022-12-22T18:09:26.789Z,57.28
2022-12-22T18:11:54.843Z,57.26
2022-12-22T18:14:23.322Z,56.99
2022-12-22T18:16:51.427Z,57.12
2022-12-22T18:19:19.640Z,56.89
2022-12-22T18:21:48.281Z,56.41
2022-12-22T18:24:18.924Z,56.15
2022-12-22T18:26:47.611Z,55.58
2022-12-22T18:29:17.078Z,55.57
2022-12-22T18:31:45.472Z,55.78
2022-12-22T18:34:13.796Z,55.49
2022-12-22T18:36:44.186Z,55.12
2022-12-22T18:39:19.091Z,54.99
2022-12-22T18:41:47.474Z,54.98
2022-12-22T18:44:17.511Z,55.00
2022-12-22T18:46:46.558Z,55.10
2022-12-22T18:49:15.506Z,55.25
2022-12-22T18:51:45.099Z,54.93
2022-12-22T18:54:36.923Z,55.01
2022-12-22T18:57:15.428Z,55.02
2022-12-22T18:59:45.030Z,54.51
2022-12-22T19:02:23.986Z,54.38
2022-12-22T19:04:52.722Z,54.98
2022-12-22T19:07:23.804Z,55.00
2022-12-22T19:09:52.316Z,54.86
2022-12-22T19:12:23.434Z,56.14
2022-12-22T19:14:57.539Z,59.25
2022-12-22T19:17:28.978Z,59.23
2022-12-22T19:19:57.777Z,57.14
2022-12-22T19:22:26.322Z,56.71
2022-12-22T19:24:57.560Z,58.60
2022-12-22T19:27:27.859Z,57.79
2022-12-22T19:30:04.037Z,57.93
2022-12-22T19:32:42.373Z,58.57
2022-12-22T19:35:19.807Z,59.24
2022-12-22T19:37:50.373Z,59.11
2022-12-22T19:40:20.921Z,58.48
2022-12-22T19:42:51.561Z,58.12
2022-12-22T19:45:30.807Z,58.06
2022-12-22T19:47:58.937Z,57.39
2022-12-22T19:50:28.747Z,57.50
2022-12-22T19:52:59.273Z,57.89
2022-12-22T19:55:30.011Z,58.59
2022-12-22T19:57:58.289Z,58.16
2022-12-22T20:00:27.970Z,58.56
2022-12-22T20:02:57.651Z,59.11
2022-12-22T20:05:25.772Z,59.44
2022-12-22T20:07:57.513Z,58.52
2022-12-22T20:10:28.288Z,59.86
2022-12-22T20:13:00.323Z,59.57
2022-12-22T20:15:32.015Z,60.83
2022-12-22T20:18:00.154Z,60.43
2022-12-22T20:20:34.084Z,59.63
2022-12-22T20:23:06.301Z,60.96
2022-12-22T20:25:40.620Z,59.38
2022-12-22T20:28:21.318Z,59.09
2022-12-22T20:30:50.450Z,59.56
2022-12-22T20:33:20.870Z,59.11
2022-12-22T20:35:50.486Z,59.60
2022-12-22T20:38:31.476Z,60.09
2022-12-22T20:41:00.201Z,58.91
2022-12-22T20:43:30.484Z,58.50
2022-12-22T20:46:14.162Z,58.73
2022-12-22T20:48:46.836Z,59.01
2022-12-22T20:51:18.694Z,58.25
2022-12-22T20:53:48.373Z,57.76
2022-12-22T20:56:24.362Z,57.63
2022-12-22T20:58:53.651Z,57.72
2022-12-22T21:01:23.592Z,57.94
2022-12-22T21:03:51.812Z,57.26
2022-12-22T21:06:22.985Z,56.46
2022-12-22T21:08:52.288Z,56.36
2022-12-22T21:11:20.696Z,56.21
2022-12-22T21:13:49.345Z,57.44
2022-12-22T21:16:23.072Z,58.72
2022-12-22T21:18:52.179Z,59.11
2022-12-22T21:21:20.949Z,59.01
2022-12-22T21:23:49.527Z,59.70
2022-12-22T21:26:41.856Z,59.76
2022-12-22T21:29:17.523Z,59.56
2022-12-22T21:31:45.744Z,58.95
2022-12-22T21:34:14.055Z,58.59
2022-12-22T21:36:44.680Z,57.91
2022-12-22T21:39:37.747Z,57.72
2022-12-22T21:42:06.552Z,57.82
2022-12-22T21:44:36.024Z,57.40
2022-12-22T21:47:04.132Z,57.11
2022-12-22T21:49:34.332Z,58.04
2022-12-22T21:52:02.622Z,58.76
2022-12-22T21:54:30.763Z,58.92
2022-12-22T21:56:59.053Z,58.14
2022-12-22T21:59:27.277Z,57.57
2022-12-22T22:01:56.750Z,57.30
2022-12-22T22:04:25.507Z,57.67
2022-12-22T22:06:53.572Z,57.03
2022-12-22T22:09:21.872Z,56.76
2022-12-22T22:12:08.877Z,56.26
2022-12-22T22:14:37.191Z,55.65
2022-12-22T22:17:05.419Z,55.55
2022-12-22T22:19:33.488Z,55.87
2022-12-22T22:22:01.635Z,56.36
2022-12-22T22:24:32.937Z,56.12
2022-12-22T22:27:01.076Z,55.46
2022-12-22T22:29:29.149Z,55.18
2022-12-22T22:31:57.211Z,56.39
2022-12-22T22:34:25.581Z,56.31
2022-12-22T22:36:53.899Z,55.22
2022-12-22T22:39:23.492Z,54.66
2022-12-22T22:41:51.569Z,54.85
2022-12-22T22:44:19.747Z,54.70
2022-12-22T22:46:48.001Z,57.19
2022-12-22T22:49:16.196Z,57.66
2022-12-22T22:51:44.684Z,57.41
2022-12-22T22:54:13.266Z,58.16
2022-12-22T22:56:41.505Z,58.42
2022-12-22T22:59:12.881Z,59.56
2022-12-22T23:01:41.186Z,59.89
2022-12-22T23:04:09.327Z,59.24
2022-12-22T23:06:37.599Z,59.27
2022-12-22T23:09:05.962Z,59.84
2022-12-22T23:11:34.168Z,60.73
2022-12-22T23:14:02.423Z,59.91
2022-12-22T23:16:35.721Z,59.22
2022-12-22T23:19:07.058Z,59.55
2022-12-22T23:21:35.567Z,60.60
2022-12-22T23:24:04.287Z,60.83
2022-12-22T23:26:32.380Z,59.67
2022-12-22T23:29:03.722Z,60.05
2022-12-22T23:31:33.957Z,59.81
2022-12-22T23:34:02.734Z,59.68
2022-12-22T23:36:31.670Z,59.40
2022-12-22T23:38:59.927Z,59.87
2022-12-22T23:41:28.277Z,59.21
2022-12-22T23:43:56.453Z,58.84
2022-12-22T23:46:24.716Z,57.97
2022-12-22T23:48:55.388Z,57.67
2022-12-22T23:51:26.724Z,57.47
2022-12-22T23:53:56.251Z,57.65
2022-12-22T23:56:24.394Z,57.07
2022-12-22T23:58:54.895Z,56.24
